Time;durP1;ratioP1;P1;durP2;ratioP2;P2;SDS_P1;SDS_P2;PMS_P1;PMS_P2;Temp;Humidity;BMP_temperature;BMP_pressure;BME280_temperature;BME280_humidity;BME280_pressure;Samples;Min_cycle;Max_cycle;Signal;HPM_P1;HPM_P2
2022/01/15 00:01:38;;;;;;;39.97;30.42;;;3.90;74.10;;;;;;5102564;28;20024;-75
2022/01/15 00:04:04;;;;;;;35.95;31.30;;;3.90;74.20;;;;;;5101056;28;20514;-76
2022/01/15 00:06:31;;;;;;;38.67;31.52;;;3.90;74.20;;;;;;5100127;28;20646;-75
2022/01/15 00:08:57;;;;;;;38.13;30.33;;;3.90;74.20;;;;;;5099820;28;20027;-75
2022/01/15 00:11:23;;;;;;;37.25;29.55;;;3.90;74.20;;;;;;5097396;28;20135;-75
2022/01/15 00:13:56;;;;;;;39.33;31.33;;;3.80;74.00;;;;;;5098590;28;20055;-75
2022/01/15 00:16:28;;;;;;;;;;;3.80;74.00;;;;;;5096276;28;20081;-75
2022/01/15 00:19:08;;;;;;;40.35;30.55;;;3.80;74.10;;;;;;5098546;28;19907;-75
2022/01/15 00:21:35;;;;;;;34.83;29.98;;;3.80;74.00;;;;;;5099750;28;20028;-75
2022/01/15 00:24:01;;;;;;;37.72;30.02;;;3.80;74.00;;;;;;5099062;28;20126;-75
2022/01/15 00:26:27;;;;;;;38.47;30.73;;;3.80;74.00;;;;;;5100934;28;20403;-75
2022/01/15 00:28:54;;;;;;;41.53;32.05;;;3.80;74.10;;;;;;5099365;28;20471;-75
2022/01/15 00:31:20;;;;;;;39.70;29.25;;;3.80;74.10;;;;;;5097802;28;20114;-75
2022/01/15 00:33:46;;;;;;;35.58;30.83;;;3.80;74.10;;;;;;5098467;28;20032;-76
2022/01/15 00:36:12;;;;;;;39.10;29.48;;;3.80;74.10;;;;;;5098923;28;20053;-75
2022/01/15 00:38:38;;;;;;;39.28;29.92;;;3.80;74.50;;;;;;5099356;28;20024;-75
2022/01/15 00:41:04;;;;;;;36.15;28.73;;;3.80;74.00;;;;;;5097202;28;20032;-75
2022/01/15 00:43:30;;;;;;;39.45;29.83;;;3.80;74.00;;;;;;5095654;28;20032;-75
2022/01/15 00:45:57;;;;;;;35.33;28.90;;;3.80;74.00;;;;;;5093435;28;20110;-75
2022/01/15 00:48:24;;;;;;;41.20;30.55;;;3.80;74.00;;;;;;5091960;28;20490;-75
2022/01/15 00:50:50;;;;;;;37.47;28.73;;;3.80;74.10;;;;;;5090627;28;20051;-75
2022/01/15 00:53:16;;;;;;;38.70;30.27;;;3.70;74.40;;;;;;5091253;28;20028;-75
2022/01/15 00:55:43;;;;;;;40.95;30.80;;;3.70;73.90;;;;;;5091371;28;20157;-75
2022/01/15 00:58:09;;;;;;;37.33;29.13;;;3.60;73.70;;;;;;5093628;28;20040;-75
2022/01/15 01:00:35;;;;;;;35.15;28.60;;;3.70;73.90;;;;;;5077005;28;20031;-75
2022/01/15 01:03:01;;;;;;;36.90;30.30;;;3.60;73.70;;;;;;5089656;28;20036;-75
2022/01/15 01:05:27;;;;;;;39.75;30.50;;;3.60;73.80;;;;;;5086439;28;20047;-75
2022/01/15 01:07:53;;;;;;;35.70;29.13;;;3.60;73.80;;;;;;5086960;28;20464;-75
2022/01/15 01:23:42;;;;;;;34.88;27.92;;;3.40;73.50;;;;;;5087109;28;20119;-75
2022/01/15 01:26:21;;;;;;;36.15;28.65;;;3.40;73.50;;;;;;5087934;28;20036;-75
2022/01/15 01:28:56;;;;;;;37.67;29.30;;;3.40;73.50;;;;;;5084956;28;20020;-75
2022/01/15 01:31:30;;;;;;;37.50;28.02;;;3.40;73.50;;;;;;5086304;28;20120;-75
2022/01/15 01:34:05;;;;;;;38.28;28.02;;;3.40;73.50;;;;;;5085027;28;20522;-75
2022/01/15 01:39:13;;;;;;;33.83;27.58;;;3.30;73.40;;;;;;5086979;28;20024;-75
2022/01/15 01:41:47;;;;;;;35.35;27.15;;;3.30;73.40;;;;;;5086869;28;20038;-75
2022/01/15 01:44:17;;;;;;;33.42;26.38;;;3.20;73.70;;;;;;5086378;28;20024;-76
2022/01/15 01:46:52;;;;;;;33.50;27.73;;;3.20;73.20;;;;;;5085821;28;20437;-73
2022/01/15 01:49:19;;;;;;;33.67;26.80;;;3.20;73.20;;;;;;5069190;28;20515;-74
2022/01/15 01:51:45;;;;;;;33.05;27.02;;;3.20;73.20;;;;;;5087286;28;20052;-76
2022/01/15 01:54:16;;;;;;;32.08;26.00;;;3.20;73.20;;;;;;5085534;28;20040;-73
2022/01/15 01:56:43;;;;;;;33.05;25.80;;;3.10;73.00;;;;;;5086998;28;20035;-74
2022/01/15 01:59:09;;;;;;;37.00;27.65;;;3.10;73.10;;;;;;5085868;28;20119;-73
2022/01/15 02:01:36;;;;;;;31.80;25.90;;;3.10;73.10;;;;;;5086048;28;20030;-74
2022/01/15 02:04:02;;;;;;;35.97;26.58;;;3.10;73.10;;;;;;5085937;28;20031;-73
2022/01/15 02:06:28;;;;;;;32.13;26.10;;;3.00;72.90;;;;;;5085005;28;20433;-75
2022/01/15 02:08:56;;;;;;;32.47;26.45;;;3.10;73.10;;;;;;5086414;28;20028;-74
2022/01/15 02:11:24;;;;;;;33.20;27.17;;;3.00;72.90;;;;;;5085927;28;20396;-75
2022/01/15 02:13:50;;;;;;;30.88;25.35;;;3.10;73.00;;;;;;5085885;28;20081;-76
2022/01/15 02:16:16;;;;;;;33.20;25.63;;;3.00;72.80;;;;;;5086452;28;20126;-73
2022/01/15 02:18:43;;;;;;;32.53;26.67;;;3.10;73.10;;;;;;5086285;28;20111;-76
2022/01/15 02:23:44;;;;;;;31.73;25.40;;;3.00;72.80;;;;;;5085932;28;20491;-76
2022/01/15 02:26:17;;;;;;;28.75;24.17;;;3.00;72.80;;;;;;5086022;28;20024;-75
2022/01/15 02:28:51;;;;;;;27.83;24.13;;;3.00;72.80;;;;;;5087503;28;20118;-76
2022/01/15 02:31:19;;;;;;;29.02;23.33;;;3.10;72.90;;;;;;5083536;28;20032;-73
2022/01/15 02:33:47;;;;;;;31.45;24.65;;;3.10;72.90;;;;;;5084613;28;20059;-74
2022/01/15 02:36:19;;;;;;;30.30;24.23;;;3.00;72.70;;;;;;5078007;28;20085;-73
2022/01/15 02:38:45;;;;;;;30.83;24.33;;;3.10;72.90;;;;;;5078148;28;20024;-73
2022/01/15 02:41:12;;;;;;;34.95;24.75;;;3.10;72.90;;;;;;5090666;28;20040;-75
2022/01/15 02:43:38;;;;;;;31.80;24.50;;;3.10;72.90;;;;;;5091585;28;20102;-76
2022/01/15 02:46:19;;;;;;;29.98;24.30;;;3.10;72.80;;;;;;5091545;28;20028;-75
2022/01/15 02:48:47;;;;;;;30.70;24.15;;;3.10;72.80;;;;;;5094479;28;20024;-75
2022/01/15 02:51:14;;;;;;;35.10;25.27;;;3.10;72.80;;;;;;5094222;28;20040;-75
2022/01/15 02:53:41;;;;;;;30.73;25.42;;;3.10;72.80;;;;;;5094489;28;21062;-75
2022/01/15 02:56:09;;;;;;;30.40;24.77;;;3.10;72.80;;;;;;5093195;28;20028;-75
2022/01/15 02:58:35;;;;;;;30.02;24.65;;;3.20;73.00;;;;;;5094142;28;20077;-75
2022/01/15 03:01:00;;;;;;;31.45;25.08;;;3.20;72.90;;;;;;5090100;28;20028;-75
2022/01/15 03:03:26;;;;;;;29.55;24.55;;;3.20;72.90;;;;;;5087126;28;20028;-76
2022/01/15 03:05:52;;;;;;;33.75;26.10;;;3.20;72.90;;;;;;5073230;28;20659;-75
2022/01/15 03:08:18;;;;;;;35.08;27.48;;;3.30;73.00;;;;;;5073819;28;20131;-75
2022/01/15 03:10:44;;;;;;;32.20;27.05;;;3.30;73.00;;;;;;5073529;28;20451;-76
2022/01/15 03:13:12;;;;;;;33.33;26.08;;;3.30;73.00;;;;;;5074123;28;20029;-76
2022/01/15 03:15:39;;;;;;;32.33;26.90;;;3.40;73.10;;;;;;5076104;28;20024;-75
2022/01/15 03:18:05;;;;;;;33.53;26.10;;;3.40;73.10;;;;;;5075396;28;20063;-75
2022/01/15 03:20:32;;;;;;;36.20;28.40;;;3.40;73.10;;;;;;5076122;28;20054;-75
2022/01/15 03:22:58;;;;;;;32.20;26.98;;;3.40;73.00;;;;;;5075997;28;20024;-76
2022/01/15 03:25:24;;;;;;;35.22;28.17;;;3.50;73.70;;;;;;5075991;28;20021;-75
2022/01/15 03:27:50;;;;;;;37.15;26.42;;;3.50;73.20;;;;;;5074208;28;20480;-76
2022/01/15 03:30:16;;;;;;;34.10;27.33;;;3.50;73.20;;;;;;5073563;28;20074;-76
2022/01/15 03:32:43;;;;;;;32.75;26.08;;;3.60;73.30;;;;;;5074164;28;20480;-75
2022/01/15 03:35:16;;;;;;;35.17;28.15;;;3.60;73.30;;;;;;5071817;28;20490;-76
2022/01/15 03:37:42;;;;;;;34.97;27.63;;;3.60;73.30;;;;;;5072115;28;20480;-76
2022/01/15 03:40:11;;;;;;;35.08;26.27;;;3.70;73.50;;;;;;5072107;28;20039;-75
2022/01/15 03:42:37;;;;;;;31.23;26.70;;;3.70;73.50;;;;;;5073361;28;20032;-76
2022/01/15 03:45:04;;;;;;;29.58;26.30;;;3.70;73.40;;;;;;5072885;28;20388;-75
2022/01/15 03:47:30;;;;;;;30.88;25.38;;;3.70;73.40;;;;;;5073358;28;20033;-76
2022/01/15 03:49:56;;;;;;;31.73;27.30;;;3.80;73.50;;;;;;5073025;28;20031;-76
2022/01/15 03:52:22;;;;;;;33.72;25.38;;;3.80;73.50;;;;;;5073092;28;20036;-76
2022/01/15 03:54:48;;;;;;;34.53;27.20;;;3.80;73.50;;;;;;5071521;28;20026;-75
2022/01/15 03:57:14;;;;;;;33.60;25.35;;;3.80;73.40;;;;;;5071721;28;20033;-75
2022/01/15 03:59:40;;;;;;;37.45;27.30;;;3.90;73.60;;;;;;5072954;28;20478;-76
2022/01/15 04:02:07;;;;;;;30.75;26.02;;;3.90;73.60;;;;;;5073091;28;20115;-75
2022/01/15 04:04:33;;;;;;;32.70;26.65;;;3.90;73.60;;;;;;5070838;28;20509;-76
2022/01/15 04:06:59;;;;;;;32.20;25.48;;;3.90;73.60;;;;;;5073363;28;20170;-75
2022/01/15 04:09:25;;;;;;;29.67;24.77;;;3.90;73.60;;;;;;5073063;28;20077;-76
2022/01/15 04:11:51;;;;;;;29.33;24.83;;;3.90;73.60;;;;;;5072523;28;20135;-76
2022/01/15 04:14:17;;;;;;;31.52;25.55;;;4.00;73.80;;;;;;5071227;28;20428;-76
2022/01/15 04:16:43;;;;;;;27.98;23.75;;;4.00;73.80;;;;;;5072518;28;20028;-75
2022/01/15 04:19:09;;;;;;;28.98;25.27;;;3.90;73.60;;;;;;5072258;28;20025;-76
2022/01/15 04:21:36;;;;;;;32.75;25.27;;;4.00;73.80;;;;;;5072626;28;20043;-76
2022/01/15 04:24:03;;;;;;;33.80;25.73;;;4.00;73.80;;;;;;5072470;28;20472;-75
2022/01/15 04:26:30;;;;;;;33.92;25.77;;;4.00;73.80;;;;;;5072990;28;20379;-75
2022/01/15 04:29:03;;;;;;;30.02;25.30;;;4.10;74.00;;;;;;5072143;28;20028;-76
2022/01/15 04:31:38;;;;;;;33.10;24.75;;;4.10;73.90;;;;;;5053949;28;20028;-75
2022/01/15 04:34:04;;;;;;;32.10;25.23;;;4.10;73.90;;;;;;5071845;28;20123;-76
2022/01/15 04:36:30;;;;;;;26.45;22.42;;;4.10;73.90;;;;;;5072069;28;20116;-76
2022/01/15 04:38:56;;;;;;;27.98;23.27;;;4.10;73.90;;;;;;5072265;28;20111;-75
2022/01/15 04:41:22;;;;;;;30.38;24.77;;;4.10;73.90;;;;;;5070980;28;20564;-75
2022/01/15 04:43:48;;;;;;;30.27;24.02;;;4.20;74.00;;;;;;5072003;28;20108;-76
2022/01/15 04:46:14;;;;;;;28.35;23.83;;;4.20;74.00;;;;;;5071717;28;20512;-75
2022/01/15 04:48:39;;;;;;;26.35;23.42;;;4.20;74.00;;;;;;5071834;28;20020;-75
2022/01/15 04:51:06;;;;;;;28.77;24.70;;;4.20;74.00;;;;;;5071541;28;20057;-75
2022/01/15 04:53:32;;;;;;;26.83;23.20;;;4.20;74.00;;;;;;5071792;28;20480;-76
2022/01/15 04:55:58;;;;;;;27.33;23.98;;;4.20;74.00;;;;;;5071418;28;20063;-75
2022/01/15 04:58:27;;;;;;;29.15;23.25;;;4.20;74.00;;;;;;5071211;28;20025;-75
2022/01/15 05:00:53;;;;;;;26.60;23.30;;;4.20;74.00;;;;;;5071417;28;20032;-75
2022/01/15 05:03:19;;;;;;;27.80;23.02;;;4.20;74.00;;;;;;5071720;28;20024;-75
2022/01/15 05:05:45;;;;;;;27.90;23.33;;;4.20;74.00;;;;;;5076773;28;20494;-75
2022/01/15 05:08:12;;;;;;;32.22;24.33;;;4.20;74.10;;;;;;5075098;28;20028;-76
2022/01/15 05:10:45;;;;;;;28.58;22.80;;;4.20;74.10;;;;;;5092119;28;20035;-75
2022/01/15 05:13:14;;;;;;;31.52;23.83;;;4.20;74.10;;;;;;5084754;28;20036;-76
2022/01/15 05:15:44;;;;;;;29.92;22.52;;;4.20;74.10;;;;;;5071886;28;20029;-76
2022/01/15 05:18:10;;;;;;;26.75;22.80;;;4.20;74.10;;;;;;5071597;28;20028;-76
2022/01/15 05:20:41;;;;;;;27.38;22.67;;;4.20;74.10;;;;;;5072032;28;20033;-76
2022/01/15 05:23:07;;;;;;;31.23;23.55;;;4.20;74.10;;;;;;5071267;28;20075;-75
2022/01/15 05:25:33;;;;;;;27.80;22.27;;;4.20;74.10;;;;;;5071345;28;20486;-76
2022/01/15 05:27:59;;;;;;;28.38;21.35;;;4.20;74.10;;;;;;5071403;28;20114;-76
2022/01/15 05:30:25;;;;;;;26.52;22.02;;;4.20;74.10;;;;;;5071790;28;20028;-75
2022/01/15 05:32:51;;;;;;;26.35;21.60;;;4.20;74.10;;;;;;5073281;28;20079;-75
2022/01/15 05:35:17;;;;;;;28.75;22.65;;;4.20;74.10;;;;;;5084507;28;20028;-75
2022/01/15 05:37:43;;;;;;;25.30;20.95;;;4.20;74.10;;;;;;5085596;28;20499;-75
2022/01/15 05:40:10;;;;;;;22.75;20.33;;;4.20;74.10;;;;;;5071848;28;20033;-75
2022/01/15 05:42:36;;;;;;;24.13;21.38;;;4.20;74.10;;;;;;5090970;28;20119;-75
2022/01/15 05:45:02;;;;;;;28.42;21.45;;;4.10;73.90;;;;;;5091306;28;20074;-75
2022/01/15 05:47:28;;;;;;;27.38;20.50;;;4.10;74.00;;;;;;5087834;28;20442;-75
2022/01/15 05:49:54;;;;;;;28.02;21.48;;;4.10;74.00;;;;;;5067846;28;20024;-75
2022/01/15 05:52:20;;;;;;;25.77;21.83;;;4.20;74.20;;;;;;5067326;28;20055;-76
2022/01/15 05:54:46;;;;;;;25.08;20.73;;;4.10;74.00;;;;;;5067840;28;20107;-75
2022/01/15 05:57:12;;;;;;;25.38;20.75;;;4.10;74.00;;;;;;5066624;28;20040;-75
2022/01/15 05:59:38;;;;;;;25.08;21.48;;;4.10;74.10;;;;;;5086692;28;20487;-75
2022/01/15 06:02:04;;;;;;;28.45;22.33;;;4.10;74.10;;;;;;5086068;28;20038;-75
2022/01/15 06:04:30;;;;;;;24.75;21.48;;;4.10;74.10;;;;;;5065581;28;20107;-75
2022/01/15 06:06:56;;;;;;;27.23;22.15;;;4.10;74.10;;;;;;5071709;28;20089;-75
2022/01/15 06:09:22;;;;;;;27.90;21.60;;;4.10;74.10;;;;;;5075384;28;20040;-75
2022/01/15 06:11:48;;;;;;;24.27;21.33;;;4.10;74.10;;;;;;5070291;28;20033;-75
2022/01/15 06:14:14;;;;;;;27.17;22.33;;;4.10;74.10;;;;;;5089711;28;20364;-75
2022/01/15 06:16:40;;;;;;;24.35;21.35;;;4.10;74.10;;;;;;5091264;28;20089;-76
2022/01/15 06:19:06;;;;;;;25.45;21.67;;;4.10;74.10;;;;;;5090618;28;20036;-75
2022/01/15 06:21:32;;;;;;;24.45;21.08;;;4.10;74.10;;;;;;5080538;28;20505;-75
2022/01/15 06:23:58;;;;;;;25.95;20.77;;;4.00;73.90;;;;;;5087919;28;20043;-75
2022/01/15 06:26:24;;;;;;;24.05;20.77;;;4.10;74.10;;;;;;5089887;28;20535;-76
2022/01/15 06:28:50;;;;;;;27.80;21.52;;;4.10;74.00;;;;;;5089854;28;20044;-76
2022/01/15 06:31:16;;;;;;;23.63;20.67;;;4.00;73.90;;;;;;5090207;28;20356;-75
2022/01/15 06:33:42;;;;;;;24.40;19.58;;;4.00;73.90;;;;;;5082231;28;20047;-76
2022/01/15 06:36:08;;;;;;;24.50;21.27;;;4.10;74.00;;;;;;5078608;28;20036;-75
2022/01/15 06:38:34;;;;;;;24.77;21.23;;;4.10;74.40;;;;;;5084141;28;20032;-76
2022/01/15 06:41:00;;;;;;;24.23;20.13;;;4.20;74.80;;;;;;5070800;28;20055;-75
2022/01/15 06:43:26;;;;;;;23.60;19.25;;;4.40;75.00;;;;;;5084358;28;20027;-74
2022/01/15 06:45:52;;;;;;;31.13;23.75;;;4.50;74.90;;;;;;5090596;28;20063;-76
2022/01/15 06:48:18;;;;;;;28.08;20.95;;;4.60;75.00;;;;;;5090718;28;20321;-76
2022/01/15 06:50:44;;;;;;;26.00;20.65;;;4.70;75.10;;;;;;5092636;28;20545;-75
2022/01/15 06:53:11;;;;;;;23.77;19.17;;;4.80;75.10;;;;;;5082047;28;20392;-75
2022/01/15 06:55:37;;;;;;;23.33;19.02;;;4.80;75.00;;;;;;5070393;28;20025;-75
2022/01/15 06:58:03;;;;;;;23.13;19.48;;;4.90;75.20;;;;;;5074638;28;20059;-75
2022/01/15 07:00:29;;;;;;;22.85;18.25;;;4.90;75.20;;;;;;5089512;28;20069;-76
2022/01/15 07:03:00;;;;;;;23.00;18.45;;;4.80;75.00;;;;;;5080834;28;20408;-74
2022/01/15 07:05:26;;;;;;;35.67;25.95;;;4.80;75.20;;;;;;5069695;28;20079;-76
2022/01/15 07:07:52;;;;;;;25.50;22.60;;;4.90;76.00;;;;;;5074393;28;20036;-76
2022/01/15 07:10:19;;;;;;;29.90;20.38;;;5.10;76.20;;;;;;5089025;28;20119;-77
2022/01/15 07:12:44;;;;;;;21.75;19.45;;;5.20;76.10;;;;;;5088563;28;20429;-76
2022/01/15 07:15:13;;;;;;;21.05;18.17;;;5.30;76.10;;;;;;5087960;28;20072;-76
2022/01/15 07:17:44;;;;;;;22.67;17.77;;;5.30;76.00;;;;;;5089004;28;20039;-76
2022/01/15 07:20:12;;;;;;;21.33;17.05;;;5.30;75.90;;;;;;5087165;28;20032;-77
2022/01/15 07:22:39;;;;;;;20.60;17.45;;;5.30;75.90;;;;;;5075614;28;20032;-76
2022/01/15 07:25:07;;;;;;;20.17;16.92;;;5.20;75.80;;;;;;5089587;28;20036;-76
2022/01/15 07:27:33;;;;;;;19.83;16.25;;;5.20;75.80;;;;;;5088787;28;20034;-76
2022/01/15 07:30:01;;;;;;;20.20;17.55;;;5.10;75.70;;;;;;5088364;28;20024;-76
2022/01/15 07:32:27;;;;;;;20.55;17.52;;;5.00;75.60;;;;;;5088490;28;20066;-78
2022/01/15 07:34:53;;;;;;;23.60;17.40;;;5.00;75.70;;;;;;5087811;28;20017;-77
2022/01/15 07:37:19;;;;;;;19.75;17.63;;;5.00;75.80;;;;;;5087372;28;20032;-78
2022/01/15 07:39:45;;;;;;;19.88;17.63;;;5.00;75.80;;;;;;5087522;28;20031;-76
2022/01/15 07:42:11;;;;;;;20.92;18.38;;;4.90;75.70;;;;;;5086141;28;20040;-77
2022/01/15 07:44:37;;;;;;;24.67;20.25;;;4.90;75.80;;;;;;5088190;28;20028;-77
2022/01/15 07:47:04;;;;;;;23.40;18.80;;;4.90;75.80;;;;;;5087223;28;20383;-77
2022/01/15 07:49:32;;;;;;;23.05;19.02;;;4.80;75.70;;;;;;5080819;28;20025;-78
2022/01/15 07:51:59;;;;;;;21.08;18.75;;;4.80;75.70;;;;;;5084824;28;20087;-78
2022/01/15 07:54:25;;;;;;;25.58;20.27;;;4.80;75.70;;;;;;5088598;28;20027;-78
2022/01/15 07:56:55;;;;;;;23.65;19.90;;;4.70;75.60;;;;;;5068859;28;20033;-78
2022/01/15 07:59:24;;;;;;;23.13;19.17;;;4.70;75.60;;;;;;5084162;28;20363;-78
2022/01/15 08:01:51;;;;;;;23.10;20.55;;;4.70;75.70;;;;;;5089179;28;20093;-77
2022/01/15 08:04:17;;;;;;;23.48;19.83;;;4.70;75.70;;;;;;5088987;28;20089;-77
2022/01/15 08:06:43;;;;;;;30.65;21.17;;;4.70;75.60;;;;;;5089763;28;20032;-77
2022/01/15 08:09:09;;;;;;;22.38;19.65;;;4.70;75.70;;;;;;5088476;28;20032;-76
2022/01/15 08:11:35;;;;;;;24.13;19.65;;;4.70;75.60;;;;;;5087717;28;20024;-76
2022/01/15 08:14:02;;;;;;;24.25;19.98;;;4.70;75.60;;;;;;5087958;28;20075;-77
2022/01/15 08:16:28;;;;;;;24.80;19.77;;;4.70;75.60;;;;;;5087299;28;20437;-77
2022/01/15 08:18:54;;;;;;;24.75;20.88;;;4.70;75.60;;;;;;5087654;28;20467;-77
2022/01/15 08:21:20;;;;;;;25.25;20.67;;;4.70;75.60;;;;;;5087928;28;20034;-76
2022/01/15 08:23:46;;;;;;;25.13;20.98;;;4.70;75.70;;;;;;5088053;28;20048;-76
2022/01/15 08:26:12;;;;;;;28.70;23.45;;;4.80;75.80;;;;;;5088068;28;20070;-77
2022/01/15 08:28:38;;;;;;;27.40;21.52;;;4.80;75.80;;;;;;5076495;28;20032;-78
2022/01/15 08:31:05;;;;;;;25.98;21.25;;;4.80;75.70;;;;;;5086727;28;20046;-74
2022/01/15 08:33:32;;;;;;;26.25;21.65;;;4.80;75.70;;;;;;5072879;28;20064;-77
2022/01/15 08:35:58;;;;;;;24.77;20.27;;;4.80;75.70;;;;;;5067336;28;20456;-77
2022/01/15 08:38:24;;;;;;;29.90;22.00;;;4.90;75.80;;;;;;5075551;28;20106;-77
2022/01/15 08:40:50;;;;;;;25.42;21.90;;;4.90;75.80;;;;;;5076638;28;20044;-79
2022/01/15 08:43:16;;;;;;;24.85;20.67;;;4.90;75.80;;;;;;5084359;28;20549;-80
2022/01/15 08:45:43;;;;;;;23.70;20.85;;;4.90;75.70;;;;;;5087508;28;20035;-80
2022/01/15 08:48:09;;;;;;;27.10;21.63;;;4.90;75.70;;;;;;5087812;28;20031;-81
2022/01/15 08:50:36;;;;;;;29.48;22.80;;;5.00;75.90;;;;;;5087869;28;20036;-79
2022/01/15 08:53:06;;;;;;;28.70;22.02;;;5.00;75.80;;;;;;5087002;28;20407;-78
2022/01/15 08:55:35;;;;;;;27.80;23.00;;;5.00;75.80;;;;;;5087796;28;20028;-80
2022/01/15 08:58:01;;;;;;;25.27;21.73;;;5.00;75.70;;;;;;5087426;28;20032;-77
2022/01/15 09:00:28;;;;;;;27.77;23.65;;;5.10;75.90;;;;;;5087577;28;20036;-77
2022/01/15 09:02:56;;;;;;;27.98;23.50;;;5.10;75.90;;;;;;5088253;28;20066;-79
2022/01/15 09:05:23;;;;;;;31.30;25.20;;;5.10;75.80;;;;;;5086838;28;20040;-78
2022/01/15 09:07:50;;;;;;;30.05;23.92;;;5.20;75.90;;;;;;5087075;28;20024;-76
2022/01/15 09:10:17;;;;;;;27.90;23.77;;;5.20;75.90;;;;;;5085887;28;20548;-78
2022/01/15 09:12:43;;;;;;;28.42;23.73;;;5.20;75.90;;;;;;5085330;28;20086;-78
2022/01/15 09:15:10;;;;;;;27.02;24.00;;;5.30;76.00;;;;;;5086296;28;20039;-76
2022/01/15 09:17:36;;;;;;;26.55;23.45;;;5.30;75.90;;;;;;5084906;28;20499;-78
2022/01/15 09:20:03;;;;;;;30.05;24.42;;;5.40;76.10;;;;;;5086941;28;20059;-78
2022/01/15 09:22:29;;;;;;;29.95;24.55;;;5.40;76.00;;;;;;5085594;28;20032;-81
2022/01/15 09:24:55;;;;;;;29.67;24.95;;;5.50;76.20;;;;;;5085530;28;20028;-84
2022/01/15 09:30:13;;;;;;;31.10;24.75;;;5.50;76.00;;;;;;5066686;28;20059;-78
2022/01/15 09:32:40;;;;;;;31.65;24.73;;;5.60;76.10;;;;;;5071412;28;20050;-79
2022/01/15 09:35:07;;;;;;;29.67;23.95;;;5.60;76.10;;;;;;5086648;28;20028;-76
2022/01/15 09:37:33;;;;;;;27.10;24.00;;;5.70;76.20;;;;;;5086618;28;20032;-77
2022/01/15 09:39:59;;;;;;;31.92;24.73;;;5.70;76.10;;;;;;5085174;28;20343;-77
2022/01/15 09:42:25;;;;;;;29.58;25.70;;;5.80;76.20;;;;;;5085518;28;20062;-78
2022/01/15 09:44:53;;;;;;;29.45;25.85;;;5.80;76.20;;;;;;5084731;28;20027;-77
2022/01/15 09:47:22;;;;;;;29.33;24.55;;;5.90;76.30;;;;;;5068290;28;20032;-77
2022/01/15 09:49:49;;;;;;;28.67;23.70;;;5.90;76.30;;;;;;5084680;28;20426;-77
2022/01/15 09:52:18;;;;;;;31.52;24.88;;;5.90;76.20;;;;;;5086428;28;20083;-77
2022/01/15 09:54:45;;;;;;;32.50;25.33;;;6.00;76.30;;;;;;5084843;28;20063;-78
2022/01/15 09:57:11;;;;;;;34.50;25.75;;;6.00;76.40;;;;;;5086229;28;20095;-78
2022/01/15 09:59:37;;;;;;;41.28;30.90;;;6.10;76.60;;;;;;5084899;28;20032;-78
2022/01/15 10:02:05;;;;;;;41.17;32.45;;;6.20;76.90;;;;;;5086772;28;20039;-78
2022/01/15 10:04:32;;;;;;;36.28;30.85;;;6.40;77.20;;;;;;5085278;28;20389;-77
2022/01/15 10:07:17;;;;;;;36.35;29.73;;;6.50;77.20;;;;;;5088051;28;20032;-77
2022/01/15 10:12:10;;;;;;;33.03;26.25;;;6.70;77.20;;;;;;5083575;28;20040;-80
2022/01/15 10:14:41;;;;;;;33.25;25.75;;;6.80;77.30;;;;;;5068133;28;20048;-77
2022/01/15 10:17:29;;;;;;;30.30;23.60;;;6.90;77.50;;;;;;5071662;28;20048;-79
2022/01/15 10:19:58;;;;;;;29.95;26.73;;;6.90;77.40;;;;;;5069016;28;20083;-77
2022/01/15 10:22:26;;;;;;;27.67;23.77;;;7.00;77.50;;;;;;5070100;28;20062;-76
2022/01/15 10:25:01;;;;;;;31.20;26.02;;;7.00;77.40;;;;;;5087184;28;20413;-79
2022/01/15 10:27:35;;;;;;;28.02;24.48;;;7.10;77.50;;;;;;5084597;28;20035;-82
2022/01/15 10:30:30;;;;;;;29.75;23.77;;;7.20;77.60;;;;;;5085858;28;20032;-79
2022/01/15 10:32:58;;;;;;;29.23;24.17;;;7.20;77.50;;;;;;5082135;28;20055;-78
2022/01/15 10:35:50;;;;;;;30.67;23.60;;;7.30;77.60;;;;;;5086580;28;20060;-78
2022/01/15 10:38:18;;;;;;;25.75;23.10;;;7.40;77.70;;;;;;5080997;28;20294;-78
2022/01/15 10:40:47;;;;;;;26.80;23.13;;;7.40;77.60;;;;;;5086271;28;20046;-81
2022/01/15 10:43:16;;;;;;;29.75;25.50;;;7.50;77.70;;;;;;5083863;28;20388;-78
2022/01/15 10:45:50;;;;;;;30.20;24.52;;;7.50;77.60;;;;;;5086066;28;20024;-79
2022/01/15 10:48:33;;;;;;;29.92;24.60;;;7.60;77.70;;;;;;5085277;28;20032;-78
2022/01/15 10:51:05;;;;;;;27.83;24.10;;;7.60;77.60;;;;;;5085584;28;20067;-79
2022/01/15 10:53:46;;;;;;;31.45;23.67;;;7.70;77.70;;;;;;5085897;28;20071;-79
2022/01/15 10:56:14;;;;;;;27.88;23.35;;;7.70;77.60;;;;;;5090237;28;20423;-88
2022/01/15 10:58:42;;;;;;;28.75;24.90;;;7.80;77.70;;;;;;5088224;28;20035;-82
2022/01/15 11:01:12;;;;;;;27.83;24.83;;;7.80;77.60;;;;;;5089996;28;20127;-81
2022/01/15 11:03:41;;;;;;;27.77;23.70;;;7.90;77.70;;;;;;5086457;28;20049;-82
2022/01/15 11:06:07;;;;;;;27.25;24.05;;;8.00;77.80;;;;;;5083498;27;113579;-82
2022/01/15 11:08:38;;;;;;;27.75;24.67;;;8.00;77.80;;;;;;5079667;28;20117;-82
2022/01/15 11:31:05;;;;;;;32.20;26.73;;;8.40;77.60;;;;;;5055607;27;20976;-83
2022/01/15 11:33:37;;;;;;;30.02;26.00;;;8.60;77.70;;;;;;5095874;28;20040;-79
2022/01/15 11:36:05;;;;;;;30.88;25.73;;;8.60;77.70;;;;;;5084469;28;20140;-80
2022/01/15 11:38:44;;;;;;;28.48;24.55;;;8.60;77.60;;;;;;5086005;28;20028;-83
2022/01/15 11:41:28;;;;;;;28.77;25.30;;;8.70;77.80;;;;;;5080963;28;20056;-85
2022/01/15 11:43:59;;;;;;;29.75;25.75;;;8.80;77.90;;;;;;5078098;28;20032;-77
2022/01/15 11:46:41;;;;;;;28.85;25.60;;;8.90;77.90;;;;;;5070039;28;20094;-77
2022/01/15 11:49:29;;;;;;;28.20;25.10;;;9.00;77.90;;;;;;5067822;28;20512;-83
2022/01/15 11:51:56;;;;;;;29.55;25.83;;;9.10;77.90;;;;;;5082268;28;20142;-84
2022/01/15 11:54:22;;;;;;;29.33;24.10;;;9.10;77.80;;;;;;5088345;28;20038;-83
2022/01/15 11:56:49;;;;;;;26.27;23.52;;;9.10;77.70;;;;;;5088463;28;20476;-82
2022/01/15 11:59:30;;;;;;;27.30;22.63;;;9.20;78.00;;;;;;5103471;28;20480;-82
2022/01/15 12:02:01;;;;;;;28.90;23.73;;;9.30;78.20;;;;;;5088344;28;20250;-79
2022/01/15 12:04:38;;;;;;;31.23;23.60;;;9.30;78.00;;;;;;5086668;28;20028;-79
2022/01/15 12:07:04;;;;;;;25.80;22.90;;;9.40;78.10;;;;;;5087595;28;20097;-80
2022/01/15 12:09:40;;;;;;;24.92;21.70;;;9.40;78.10;;;;;;5103065;28;20523;-80
2022/01/15 12:12:19;;;;;;;27.20;23.95;;;9.40;78.00;;;;;;5087702;28;20496;-78
2022/01/15 12:14:48;;;;;;;27.77;22.08;;;9.40;78.00;;;;;;5087610;28;20036;-79
2022/01/15 12:19:40;;;;;;;26.20;22.88;;;9.50;78.20;;;;;;5801262;22;20752;-77
2022/01/15 12:22:07;;;;;;;25.80;23.00;;;9.50;78.20;;;;;;5050021;28;20052;-77
2022/01/15 12:24:41;;;;;;;26.92;23.40;;;9.50;78.20;;;;;;5062780;28;20025;-78
2022/01/15 12:27:11;;;;;;;27.00;22.70;;;9.50;78.10;;;;;;5049670;28;20038;-77
2022/01/15 12:29:37;;;;;;;27.85;23.38;;;9.60;78.20;;;;;;5050068;28;20037;-78
2022/01/15 12:32:04;;;;;;;23.98;21.33;;;9.60;78.10;;;;;;5048201;28;20170;-77
2022/01/15 12:34:30;;;;;;;27.55;22.33;;;9.70;78.20;;;;;;5049788;28;20029;-77
2022/01/15 12:36:56;;;;;;;26.42;23.48;;;9.70;78.10;;;;;;5048266;28;20037;-77
2022/01/15 12:39:39;;;;;;;27.95;21.13;;;9.80;78.10;;;;;;5049727;28;20061;-76
2022/01/15 12:42:07;;;;;;;26.20;22.00;;;9.80;78.00;;;;;;5037147;28;20025;-76
2022/01/15 12:44:41;;;;;;;24.85;22.15;;;9.90;78.10;;;;;;5036011;28;20026;-76
2022/01/15 12:47:07;;;;;;;26.38;22.13;;;9.90;77.90;;;;;;5051167;28;20036;-78
2022/01/15 12:49:39;;;;;;;26.02;22.10;;;10.00;78.00;;;;;;5034104;28;20084;-78
2022/01/15 12:52:11;;;;;;;25.53;22.53;;;10.00;77.80;;;;;;5033798;28;20403;-78
2022/01/15 12:54:38;;;;;;;23.60;21.15;;;10.10;77.90;;;;;;5050443;28;20117;-77
2022/01/15 12:57:05;;;;;;;22.52;19.05;;;10.10;77.80;;;;;;5042645;28;20025;-77
2022/01/15 12:59:33;;;;;;;24.67;21.95;;;10.10;77.70;;;;;;5052405;28;20025;-77
2022/01/15 13:02:02;;;;;;;22.25;19.88;;;10.20;77.80;;;;;;5053888;28;20029;-80
2022/01/15 13:04:28;;;;;;;23.83;20.25;;;10.20;77.70;;;;;;5052628;28;20274;-84
2022/01/15 13:07:01;;;;;;;23.80;21.30;;;10.30;77.80;;;;;;5053398;28;20128;-82
2022/01/15 13:09:40;;;;;;;22.20;19.70;;;10.30;77.70;;;;;;5056484;28;20036;-87
2022/01/15 13:12:07;;;;;;;21.35;18.50;;;10.40;77.70;;;;;;5038249;28;20044;-92
2022/01/15 13:14:39;;;;;;;23.08;20.25;;;10.40;77.60;;;;;;5056625;28;20020;-93
2022/01/15 13:17:22;;;;;;;22.00;18.50;;;10.50;77.60;;;;;;5056099;28;20140;-91
2022/01/15 13:19:48;;;;;;;20.83;17.95;;;10.60;77.70;;;;;;5060196;28;20035;-96
2022/01/15 13:22:22;;;;;;;20.23;18.00;;;10.60;77.60;;;;;;5074160;28;20127;-87
2022/01/15 13:24:58;;;;;;;19.77;16.83;;;10.70;77.60;;;;;;5074049;28;20035;-88
2022/01/15 13:27:25;;;;;;;18.27;16.33;;;10.70;77.40;;;;;;5072136;28;20439;-82